Time;durP1;ratioP1;P1;durP2;ratioP2;P2;SDS_P1;SDS_P2;PMS_P1;PMS_P2;Temp;Humidity;BMP_temperature;BMP_pressure;BME280_temperature;BME280_humidity;BME280_pressure;Samples;Min_cycle;Max_cycle;Signal;HPM_P1;HPM_P2
2022/10/04 00:00:49;;;;;;;0.47;0.47;;;;;;;5.31;100.00;97510.53;5174337;27;20050;-66
2022/10/04 00:03:25;;;;;;;0.90;0.50;;;;;;;5.60;100.00;97482.50;5173875;27;20076;-66
2022/10/04 00:05:54;;;;;;;1.95;0.52;;;;;;;5.58;100.00;97495.69;5174473;27;20053;-66
2022/10/04 00:08:26;;;;;;;0.85;0.63;;;;;;;5.73;100.00;97482.22;5174264;27;20046;-66
2022/10/04 00:11:03;;;;;;;0.52;0.43;;;;;;;5.76;100.00;97493.13;5174164;27;20098;-66
2022/10/04 00:13:31;;;;;;;1.40;0.50;;;;;;;5.47;100.00;97505.66;5173931;27;20050;-66
2022/10/04 00:15:57;;;;;;;1.85;0.50;;;;;;;5.59;100.00;97491.81;5173966;27;20457;-66
2022/10/04 00:18:30;;;;;;;1.55;1.02;;;;;;;5.59;100.00;97501.91;5174137;27;20053;-66
2022/10/04 00:21:00;;;;;;;0.40;0.40;;;;;;;5.74;100.00;97497.41;5174130;27;20565;-66
2022/10/04 00:23:29;;;;;;;0.95;0.50;;;;;;;5.79;100.00;97513.38;5173985;27;20501;-66
2022/10/04 00:25:57;;;;;;;0.88;0.50;;;;;;;5.72;100.00;97524.19;5173624;27;20046;-66
2022/10/04 00:28:30;;;;;;;0.35;0.35;;;;;;;5.71;100.00;97517.19;5173910;27;20054;-66
2022/10/04 00:31:15;;;;;;;2.60;0.70;;;;;;;5.55;100.00;97525.56;5173616;27;20057;-66
2022/10/04 00:33:44;;;;;;;0.52;0.52;;;;;;;5.28;100.00;97522.91;5173911;27;20053;-66
2022/10/04 00:36:43;;;;;;;0.60;0.60;;;;;;;5.66;100.00;97497.34;5173384;27;20072;-66
2022/10/04 00:39:41;;;;;;;0.50;0.50;;;;;;;5.60;100.00;97506.97;5173685;27;20050;-67
2022/10/04 00:42:35;;;;;;;0.50;0.50;;;;;;;5.71;100.00;97506.31;5173926;27;20457;-66
2022/10/04 00:45:20;;;;;;;0.50;0.50;;;;;;;5.79;100.00;97507.94;5163911;27;20046;-66
2022/10/04 00:48:02;;;;;;;2.65;0.65;;;;;;;5.75;100.00;97518.78;5173390;27;20054;-66
2022/10/04 00:50:35;;;;;;;0.50;0.50;;;;;;;5.49;100.00;97516.94;5173580;27;20042;-66
2022/10/04 00:53:09;;;;;;;2.60;0.50;;;;;;;5.71;100.00;97500.88;5173330;27;20057;-66
2022/10/04 00:55:41;;;;;;;2.15;0.50;;;;;;;5.53;100.00;97501.47;5173667;27;20053;-66
2022/10/04 00:58:17;;;;;;;1.75;0.70;;;;;;;5.60;100.00;97506.97;5173275;27;20046;-66
2022/10/04 01:00:47;;;;;;;4.07;1.25;;;;;;;5.54;100.00;97492.16;5172644;27;20060;-66
2022/10/04 01:03:18;;;;;;;0.50;0.50;;;;;;;5.67;100.00;97487.25;5173107;27;20561;-66
2022/10/04 01:05:49;;;;;;;1.40;0.70;;;;;;;5.82;100.00;97499.81;5172973;27;20050;-66
2022/10/04 01:08:22;;;;;;;0.50;0.50;;;;;;;5.72;100.00;97503.22;5173059;27;20061;-66
2022/10/04 01:10:52;;;;;;;2.28;0.60;;;;;;;5.64;100.00;97509.75;5172972;27;20394;-66
2022/10/04 01:13:20;;;;;;;0.60;0.60;;;;;;;5.75;100.00;97504.41;5173226;27;20042;-66
2022/10/04 01:15:52;;;;;;;2.25;0.70;;;;;;;5.80;100.00;97504.84;5173008;27;20485;-66
2022/10/04 01:18:30;;;;;;;0.50;0.50;;;;;;;5.55;100.00;97531.00;5173485;27;20644;-66
2022/10/04 01:20:59;;;;;;;2.53;0.70;;;;;;;5.60;100.00;97519.78;5172828;27;20049;-66
2022/10/04 01:23:39;;;;;;;3.40;0.77;;;;;;;5.89;100.00;97520.84;5173022;27;20042;-66
2022/10/04 01:26:28;;;;;;;0.43;0.43;;;;;;;5.89;100.00;97537.16;5172827;27;20050;-66
2022/10/04 01:28:55;;;;;;;5.43;0.80;;;;;;;5.81;100.00;97544.47;5172511;27;20133;-66
2022/10/04 01:31:21;;;;;;;4.00;0.60;;;;;;;5.84;100.00;97543.75;5172920;27;20057;-66
2022/10/04 01:33:48;;;;;;;0.88;0.65;;;;;;;5.89;100.00;97537.16;5172754;27;20042;-66
2022/10/04 01:36:14;;;;;;;0.50;0.50;;;;;;;5.66;100.00;97543.56;5172546;27;20424;-67
2022/10/04 01:38:41;;;;;;;0.50;0.50;;;;;;;5.76;100.00;97544.81;5172458;27;20054;-66
2022/10/04 01:41:10;;;;;;;0.60;0.60;;;;;;;5.50;100.00;97542.97;5172849;27;20049;-66
2022/10/04 01:43:39;;;;;;;0.40;0.40;;;;;;;5.60;100.00;97530.66;5172565;27;20557;-66
2022/10/04 01:46:10;;;;;;;1.42;0.80;;;;;;;5.67;100.00;97541.63;5172317;27;20046;-66
2022/10/04 01:48:39;;;;;;;1.77;0.43;;;;;;;5.57;100.00;97547.72;5172486;27;20409;-66
2022/10/04 01:51:12;;;;;;;2.58;0.50;;;;;;;5.66;100.00;97545.47;5172466;27;20501;-66
2022/10/04 01:53:43;;;;;;;1.10;0.80;;;;;;;5.58;100.00;97547.34;5172453;27;20050;-66
2022/10/04 01:56:14;;;;;;;3.05;1.10;;;;;;;5.60;100.00;97561.34;5172270;27;20054;-66
2022/10/04 01:58:44;;;;;;;0.52;0.52;;;;;;;5.70;100.00;97564.53;5172531;27;20418;-66
2022/10/04 02:01:16;;;;;;;1.35;0.50;;;;;;;5.66;100.00;97568.03;5172254;27;20050;-66
2022/10/04 02:03:47;;;;;;;0.57;0.55;;;;;;;5.56;100.00;97586.91;5172287;27;20042;-66
2022/10/04 02:06:15;;;;;;;0.50;0.50;;;;;;;5.43;100.00;97587.16;5171950;27;20060;-66
2022/10/04 02:08:48;;;;;;;1.20;0.52;;;;;;;5.56;100.00;97586.91;5172096;27;20046;-66
2022/10/04 02:11:18;;;;;;;0.40;0.40;;;;;;;5.43;100.00;97610.81;5173120;27;20420;-66
2022/10/04 02:13:47;;;;;;;1.58;0.60;;;;;;;5.38;100.00;97613.88;5176006;27;20088;-66
2022/10/04 02:16:13;;;;;;;2.15;0.55;;;;;;;5.13;100.00;97608.09;5176136;27;20050;-66
2022/10/04 02:18:42;;;;;;;0.40;0.40;;;;;;;5.14;100.00;97587.94;5175783;27;20046;-66
2022/10/04 02:21:11;;;;;;;3.33;1.70;;;;;;;5.52;100.00;97586.09;5176014;27;20179;-66
2022/10/04 02:23:38;;;;;;;0.50;0.50;;;;;;;5.62;100.00;97618.84;5175807;27;20054;-66
2022/10/04 02:26:06;;;;;;;0.70;0.70;;;;;;;5.15;100.00;97622.88;5175733;27;20505;-67
2022/10/04 02:28:33;;;;;;;1.48;0.50;;;;;;;5.45;100.00;97616.69;5175661;27;20485;-66
2022/10/04 02:33:46;;;;;;;0.70;0.70;;;;;;;5.32;100.00;97613.41;5175828;27;20046;-66
2022/10/04 02:36:14;;;;;;;0.55;0.55;;;;;;;5.43;100.00;97610.81;5175632;27;20057;-66
2022/10/04 02:38:47;;;;;;;1.70;0.80;;;;;;;5.50;100.00;97601.97;5175650;27;20106;-66
2022/10/04 02:41:24;;;;;;;1.05;0.50;;;;;;;5.28;100.00;97631.59;5175665;27;20091;-66
2022/10/04 02:43:54;;;;;;;1.25;0.57;;;;;;;5.38;100.00;97632.91;5175763;27;20050;-66
2022/10/04 02:46:25;;;;;;;0.88;0.60;;;;;;;5.23;100.00;97628.41;5175366;27;20055;-66
2022/10/04 02:48:55;;;;;;;0.65;0.50;;;;;;;5.15;100.00;97616.66;5175394;27;20042;-67
2022/10/04 02:51:28;;;;;;;0.93;0.80;;;;;;;5.46;100.00;97595.72;5175466;27;20057;-66
2022/10/04 02:54:04;;;;;;;2.83;0.80;;;;;;;5.45;100.00;97596.88;5175240;27;20053;-66
2022/10/04 02:56:32;;;;;;;2.35;0.52;;;;;;;5.53;100.00;97602.03;5175345;27;20050;-66
2022/10/04 02:59:01;;;;;;;1.40;0.60;;;;;;;5.43;100.00;97627.94;5175137;27;20066;-66
2022/10/04 03:01:37;;;;;;;0.43;0.43;;;;;;;5.32;100.00;97618.06;5175249;27;20046;-66
2022/10/04 03:04:03;;;;;;;2.17;0.68;;;;;;;5.44;100.00;97612.41;5174986;27;20421;-66
2022/10/04 03:06:32;;;;;;;0.65;0.63;;;;;;;5.59;100.00;97618.78;5175391;27;20050;-66
2022/10/04 03:09:01;;;;;;;5.25;0.75;;;;;;;5.38;100.00;97638.34;5174900;27;20551;-66
2022/10/04 03:11:30;;;;;;;1.08;0.55;;;;;;;5.21;100.00;97620.63;5175159;27;20042;-66
2022/10/04 03:14:01;;;;;;;1.10;0.70;;;;;;;5.35;100.00;97611.88;5175148;27;20398;-66
2022/10/04 03:16:35;;;;;;;0.63;0.60;;;;;;;5.72;100.00;97620.13;5174945;27;20057;-66
2022/10/04 03:19:01;;;;;;;0.52;0.52;;;;;;;5.79;100.00;97627.59;5174885;27;20043;-66
2022/10/04 03:21:28;;;;;;;0.50;0.50;;;;;;;5.78;100.00;97645.84;5174943;27;20501;-66
2022/10/04 03:23:54;;;;;;;0.60;0.60;;;;;;;5.55;100.00;97656.81;5174380;27;20042;-66
2022/10/04 03:26:29;;;;;;;0.60;0.60;;;;;;;5.65;100.00;97647.22;5174602;27;20045;-66
2022/10/04 03:28:56;;;;;;;4.07;0.98;;;;;;;5.64;100.00;97642.94;5174692;27;20576;-66
2022/10/04 03:31:26;;;;;;;0.95;0.75;;;;;;;5.71;100.00;97642.25;5174719;27;20085;-66
2022/10/04 03:33:55;;;;;;;0.85;0.68;;;;;;;5.76;100.00;97658.22;5174833;27;20046;-66
2022/10/04 03:36:24;;;;;;;2.78;0.65;;;;;;;5.40;100.00;97663.22;5174578;27;20046;-66
2022/10/04 03:38:54;;;;;;;1.38;0.80;;;;;;;5.61;100.00;97651.84;5174511;27;20053;-66
2022/10/04 03:41:22;;;;;;;0.70;0.70;;;;;;;5.68;100.00;97643.00;5174680;27;20050;-66
2022/10/04 03:43:50;;;;;;;0.65;0.65;;;;;;;5.70;100.00;97657.78;5174375;27;20095;-66
2022/10/04 03:46:18;;;;;;;0.60;0.60;;;;;;;5.81;100.00;97658.69;5174516;27;20557;-66
2022/10/04 03:48:49;;;;;;;0.65;0.52;;;;;;;5.86;100.00;97652.94;5174360;27;20054;-66
2022/10/04 03:51:18;;;;;;;0.70;0.70;;;;;;;5.86;100.00;97652.13;5174341;27;20484;-66
2022/10/04 03:53:46;;;;;;;2.47;1.23;;;;;;;5.82;100.00;97678.50;5174633;27;20736;-66
2022/10/04 03:56:17;;;;;;;0.77;0.77;;;;;;;5.80;100.00;97665.31;5174154;27;20058;-66
2022/10/04 03:58:45;;;;;;;1.15;0.82;;;;;;;5.79;100.00;97666.44;5174086;27;20050;-66
2022/10/04 04:01:20;;;;;;;0.85;0.68;;;;;;;5.75;100.00;97675.72;5174099;27;20046;-66
2022/10/04 04:04:03;;;;;;;1.60;0.80;;;;;;;5.74;100.00;97660.56;5174177;27;20042;-66
2022/10/04 04:06:40;;;;;;;0.70;0.70;;;;;;;5.80;100.00;97668.03;5173992;27;20559;-66
2022/10/04 04:09:08;;;;;;;0.80;0.80;;;;;;;5.96;100.00;97681.44;5174320;27;20425;-66
2022/10/04 04:11:36;;;;;;;0.80;0.80;;;;;;;5.88;100.00;97679.75;5174445;27;20057;-66
2022/10/04 04:14:08;;;;;;;1.83;0.90;;;;;;;5.76;100.00;97677.25;5174473;27;20514;-66
2022/10/04 04:16:36;;;;;;;0.77;0.77;;;;;;;5.82;100.00;97681.22;5173902;27;20054;-66
2022/10/04 04:19:10;;;;;;;0.93;0.93;;;;;;;5.76;100.00;97675.31;5174008;27;20050;-66
2022/10/04 04:21:37;;;;;;;0.60;0.60;;;;;;;5.93;100.00;97684.13;5173949;27;20109;-66
2022/10/04 04:24:07;;;;;;;2.65;0.77;;;;;;;5.62;100.00;97691.47;5174085;27;20057;-66
2022/10/04 04:26:38;;;;;;;2.47;0.85;;;;;;;6.01;100.00;97683.84;5174099;27;20397;-66
2022/10/04 04:29:10;;;;;;;0.90;0.90;;;;;;;5.73;100.00;97694.31;5174005;27;20787;-66
2022/10/04 04:31:43;;;;;;;0.90;0.90;;;;;;;5.80;100.00;97703.38;5174082;27;20054;-66
2022/10/04 04:34:19;;;;;;;0.63;0.63;;;;;;;6.09;100.00;97711.91;5172701;27;20505;-66
2022/10/04 04:36:46;;;;;;;1.30;1.00;;;;;;;5.99;100.00;97704.41;5173924;27;20054;-67
2022/10/04 04:39:36;;;;;;;3.03;1.40;;;;;;;6.13;100.00;97705.38;5173616;27;20046;-67
2022/10/04 04:42:09;;;;;;;1.92;1.02;;;;;;;6.10;100.00;97713.50;5173609;27;20058;-67
2022/10/04 04:44:38;;;;;;;0.80;0.80;;;;;;;5.97;100.00;97734.72;5173602;27;20053;-66
2022/10/04 04:47:08;;;;;;;0.95;0.90;;;;;;;6.03;100.00;97733.22;5173221;27;20052;-67
2022/10/04 04:49:39;;;;;;;1.27;0.75;;;;;;;6.17;100.00;97735.34;5173485;27;20053;-66
2022/10/04 04:52:07;;;;;;;0.90;0.90;;;;;;;6.10;100.00;97741.47;5173415;27;20053;-66
2022/10/04 04:54:33;;;;;;;1.00;0.95;;;;;;;6.00;100.00;97736.69;5173332;27;20145;-66
2022/10/04 04:57:00;;;;;;;0.68;0.68;;;;;;;5.96;100.00;97746.72;5173133;27;20482;-67
2022/10/04 04:59:27;;;;;;;1.45;1.02;;;;;;;6.22;100.00;97750.56;5173519;27;20053;-66
2022/10/04 05:01:53;;;;;;;1.08;0.90;;;;;;;5.88;100.00;97756.69;5173157;27;20520;-66
2022/10/04 05:04:22;;;;;;;1.63;0.98;;;;;;;6.27;100.00;97756.47;5173197;27;20050;-66
2022/10/04 05:07:01;;;;;;;2.08;1.10;;;;;;;6.04;100.00;97766.66;5173117;27;20501;-67
2022/10/04 05:09:30;;;;;;;0.70;0.70;;;;;;;6.32;100.00;97766.22;5172913;27;20094;-67
2022/10/04 05:12:02;;;;;;;3.95;1.20;;;;;;;6.03;100.00;97779.47;5173305;27;20053;-66
2022/10/04 05:14:30;;;;;;;2.83;0.90;;;;;;;6.21;100.00;97770.75;5173034;27;20046;-66
2022/10/04 05:16:57;;;;;;;0.70;0.70;;;;;;;6.16;100.00;97773.78;5172768;27;20050;-66
2022/10/04 05:19:27;;;;;;;1.55;1.00;;;;;;;6.25;100.00;97785.19;5172678;27;20505;-67
2022/10/04 05:21:58;;;;;;;0.65;0.60;;;;;;;6.21;100.00;97789.81;5172878;27;20042;-66
2022/10/04 05:24:28;;;;;;;1.27;0.63;;;;;;;5.85;100.00;97802.88;5172756;27;20050;-66
2022/10/04 05:26:57;;;;;;;0.70;0.70;;;;;;;6.41;100.00;97804.06;5172664;27;20050;-66
2022/10/04 05:29:27;;;;;;;0.60;0.60;;;;;;;5.96;100.00;97816.66;5172979;27;20053;-66
2022/10/04 05:32:04;;;;;;;0.50;0.50;;;;;;;6.35;100.00;97823.44;5172669;27;20493;-66
2022/10/04 05:34:37;;;;;;;2.05;1.00;;;;;;;6.40;100.00;97832.41;5172898;27;20050;-66
2022/10/04 05:37:21;;;;;;;1.20;0.93;;;;;;;6.56;100.00;97847.44;5172605;27;20102;-66
2022/10/04 05:39:59;;;;;;;0.77;0.77;;;;;;;6.63;100.00;97863.06;5172931;27;20049;-66
2022/10/04 05:42:37;;;;;;;1.23;0.80;;;;;;;6.56;100.00;97888.28;5172576;27;20101;-66
2022/10/04 05:45:14;;;;;;;3.03;1.15;;;;;;;6.68;100.00;97894.63;5172453;27;20053;-66
2022/10/04 05:47:41;;;;;;;0.73;0.73;;;;;;;6.68;100.00;97909.03;5172284;27;20058;-67
2022/10/04 05:50:15;;;;;;;3.80;1.00;;;;;;;6.47;100.00;97934.03;5172587;27;20138;-66
2022/10/04 05:52:42;;;;;;;;;;;;;;;6.46;100.00;97937.91;5172955;27;20056;-62
2022/10/04 05:55:20;;;;;;;0.80;0.70;;;;;;;6.67;100.00;97923.81;5172738;27;19927;-65
2022/10/04 05:57:57;;;;;;;1.65;1.05;;;;;;;6.24;100.00;97915.03;5172594;27;20046;-67
2022/10/04 06:00:32;;;;;;;0.73;0.70;;;;;;;6.58;100.00;97910.47;5172208;27;20047;-66
2022/10/04 06:03:23;;;;;;;2.40;0.95;;;;;;;6.11;100.00;97919.13;5172163;27;20425;-67
2022/10/04 06:05:53;;;;;;;5.50;2.83;;;;;;;6.73;100.00;97906.00;5172220;27;20239;-65
2022/10/04 06:08:42;;;;;;;48.90;20.33;;;;;;;6.87;100.00;97929.91;5171990;27;20102;-64
2022/10/04 06:11:21;;;;;;;15.13;7.45;;;;;;;6.94;100.00;97956.47;5171883;27;20050;-67
2022/10/04 06:14:18;;;;;;;15.60;7.20;;;;;;;6.66;100.00;97965.78;5171952;27;20050;-66
2022/10/04 06:17:09;;;;;;;1.70;1.25;;;;;;;6.78;100.00;97978.44;5171935;27;20050;-66
2022/10/04 06:20:10;;;;;;;6.78;3.60;;;;;;;6.75;100.00;97984.59;5172392;27;20042;-69
2022/10/04 06:22:43;;;;;;;4.70;1.92;;;;;;;6.63;100.00;98007.41;5171979;27;20103;-67
2022/10/04 06:25:20;;;;;;;1.90;1.60;;;;;;;6.86;100.00;98010.03;5171845;27;20050;-67
2022/10/04 06:27:52;;;;;;;4.47;2.50;;;;;;;6.93;100.00;98007.44;5171680;27;20046;-66
2022/10/04 06:30:20;;;;;;;0.98;0.90;;;;;;;6.88;100.00;98009.69;5171890;27;20061;-73
2022/10/04 06:33:12;;;;;;;5.80;3.03;;;;;;;7.13;100.00;98026.38;5171911;27;20046;-74
2022/10/04 06:35:56;;;;;;;0.85;0.85;;;;;;;7.01;100.00;98039.06;5171888;27;20047;-69
2022/10/04 06:38:47;;;;;;;0.70;0.70;;;;;;;7.19;100.00;98043.97;5171757;27;20053;-69
2022/10/04 06:41:25;;;;;;;29.52;12.93;;;;;;;7.10;100.00;98063.34;5171592;27;20101;-69
2022/10/04 06:44:24;;;;;;;1.25;0.73;;;;;;;7.19;100.00;98063.84;5171812;27;20094;-68
2022/10/04 06:46:55;;;;;;;2.90;1.13;;;;;;;7.11;100.00;98070.34;5171753;27;20060;-68
2022/10/04 06:49:41;;;;;;;24.65;12.05;;;;;;;7.06;100.00;98073.38;5171556;27;20046;-68
2022/10/04 06:52:24;;;;;;;4.35;2.20;;;;;;;7.62;100.00;98048.00;5171500;27;20054;-72
2022/10/04 06:55:18;;;;;;;0.80;0.80;;;;;;;7.42;100.00;98082.06;5171547;27;20053;-70
2022/10/04 06:58:13;;;;;;;1.45;1.00;;;;;;;7.31;100.00;98092.81;5172677;27;20420;-70
2022/10/04 07:00:47;;;;;;;0.60;0.60;;;;;;;7.26;100.00;98102.13;5175396;27;20053;-70
2022/10/04 07:03:21;;;;;;;1.85;0.90;;;;;;;7.20;100.00;98121.88;5174998;27;20050;-71
2022/10/04 07:05:53;;;;;;;2.13;0.90;;;;;;;7.31;100.00;98120.88;5175023;27;20046;-70
2022/10/04 07:08:31;;;;;;;0.70;0.70;;;;;;;7.36;100.00;98121.69;5175215;27;20049;-70
2022/10/04 07:11:02;;;;;;;13.15;4.63;;;;;;;7.50;100.00;98132.81;5175000;27;20057;-70
2022/10/04 07:13:39;;;;;;;4.68;1.33;;;;;;;7.59;100.00;98133.31;5175094;27;20046;-70
2022/10/04 07:16:12;;;;;;;6.18;3.65;;;;;;;7.16;100.00;98131.94;5175092;27;20485;-70
2022/10/04 07:18:55;;;;;;;2.92;2.20;;;;;;;7.62;100.00;98126.31;5174972;27;20090;-70
2022/10/04 07:21:26;;;;;;;1.30;1.20;;;;;;;7.81;100.00;98136.31;5174730;27;20046;-71
2022/10/04 07:23:56;;;;;;;1.00;1.00;;;;;;;7.67;100.00;98137.72;5174717;27;20137;-71
2022/10/04 07:26:28;;;;;;;1.00;0.88;;;;;;;7.98;100.00;98146.66;5174638;27;20125;-70
2022/10/04 07:32:07;;;;;;;2.25;1.52;;;;;;;7.94;100.00;98171.19;5124828;27;20046;-70
2022/10/04 07:34:38;;;;;;;1.15;1.02;;;;;;;7.92;100.00;98183.63;5174629;27;20046;-70
2022/10/04 07:37:09;;;;;;;0.85;0.85;;;;;;;7.76;100.00;98176.41;5174494;27;20050;-70
2022/10/04 07:39:44;;;;;;;0.98;0.90;;;;;;;8.02;100.00;98188.41;5174369;27;20053;-70
2022/10/04 07:42:18;;;;;;;1.98;1.77;;;;;;;7.94;100.00;98182.09;5174595;27;20054;-70
2022/10/04 07:44:55;;;;;;;3.00;2.67;;;;;;;7.71;100.00;98201.28;5174741;27;20085;-70
2022/10/04 07:47:24;;;;;;;2.92;2.70;;;;;;;7.91;100.00;98203.88;5174286;27;20071;-70
2022/10/04 07:49:52;;;;;;;0.90;0.90;;;;;;;7.77;100.00;98196.31;5174611;27;20042;-70
2022/10/04 07:52:47;;;;;;;2.03;1.08;;;;;;;7.91;100.00;98206.59;5174249;27;20046;-70
2022/10/04 07:55:18;;;;;;;;;;;;;;;7.81;100.00;98204.53;5174948;27;20167;-70
2022/10/04 07:57:54;;;;;;;2.17;1.13;;;;;;;8.00;100.00;98207.13;5174166;27;19947;-70
2022/10/04 08:00:24;;;;;;;0.77;0.77;;;;;;;7.99;100.00;98214.50;5174124;27;20061;-70
2022/10/04 08:03:09;;;;;;;0.70;0.70;;;;;;;8.26;100.00;98211.72;5174100;27;20046;-70
2022/10/04 08:05:41;;;;;;;1.00;1.00;;;;;;;8.07;100.00;98215.41;5174061;27;20058;-71
2022/10/04 08:08:28;;;;;;;0.82;0.80;;;;;;;8.31;100.00;98211.38;5173710;27;20160;-70
2022/10/04 08:11:07;;;;;;;0.80;0.80;;;;;;;8.30;100.00;98206.28;5173320;27;20046;-70
2022/10/04 08:13:39;;;;;;;0.73;0.70;;;;;;;8.15;100.00;98216.25;5173931;27;20423;-70
2022/10/04 08:16:17;;;;;;;1.15;1.00;;;;;;;8.06;100.00;98226.66;5173894;27;20561;-70
2022/10/04 08:18:58;;;;;;;0.90;0.90;;;;;;;7.74;100.00;98213.41;5173895;27;20098;-70
2022/10/04 08:21:40;;;;;;;1.52;0.85;;;;;;;7.86;100.00;98231.47;5174020;27;20046;-70
2022/10/04 08:24:19;;;;;;;1.30;0.95;;;;;;;8.08;100.00;98236.06;5173732;27;20047;-70
2022/10/04 08:26:57;;;;;;;1.30;1.00;;;;;;;8.10;100.00;98250.16;5173665;27;20107;-70
2022/10/04 08:29:46;;;;;;;0.80;0.80;;;;;;;8.15;100.00;98252.53;5173674;27;20057;-70
2022/10/04 08:32:44;;;;;;;2.13;1.17;;;;;;;8.08;100.00;98255.19;5173847;27;20505;-70
2022/10/04 08:35:32;;;;;;;1.20;1.10;;;;;;;7.88;100.00;98256.47;5173816;27;20046;-70
2022/10/04 08:38:35;;;;;;;3.22;1.50;;;;;;;7.92;100.00;98255.34;5173530;27;20075;-70
2022/10/04 08:41:48;;;;;;;4.53;2.45;;;;;;;7.61;100.00;98255.69;5173401;27;20075;-70
2022/10/04 08:45:02;;;;;;;1.00;1.00;;;;;;;8.02;100.00;98245.72;5173898;27;20420;-70
2022/10/04 08:47:51;;;;;;;3.47;1.60;;;;;;;8.07;100.00;98241.91;5149005;27;20416;-70
2022/10/04 08:50:56;;;;;;;5.57;3.33;;;;;;;8.38;100.00;98257.13;5173262;27;20415;-70
2022/10/04 08:53:52;;;;;;;;;;;;;;;8.29;100.00;98268.31;5149642;27;20049;-70
2022/10/04 08:56:49;;;;;;;1.30;1.15;;;;;;;8.13;100.00;98281.34;5173342;27;19930;-70
2022/10/04 08:59:48;;;;;;;1.15;1.02;;;;;;;8.48;100.00;98286.53;5173362;27;20142;-69
2022/10/04 09:02:46;;;;;;;6.40;3.28;;;;;;;8.64;100.00;98297.25;5173163;27;20046;-69
2022/10/04 09:05:23;;;;;;;1.05;1.00;;;;;;;8.65;100.00;98290.63;5173271;27;20189;-65
2022/10/04 09:08:36;;;;;;;1.50;1.20;;;;;;;8.64;100.00;98294.53;5172903;27;20054;-66
2022/10/04 09:11:33;;;;;;;2.90;1.60;;;;;;;8.54;100.00;98287.00;5109591;27;20513;-68
2022/10/04 09:14:17;;;;;;;3.88;1.60;;;;;;;8.40;100.00;98304.78;5152022;27;20058;-67
2022/10/04 09:16:45;;;;;;;2.30;1.48;;;;;;;8.45;100.00;98318.09;5172792;27;20556;-65
2022/10/04 09:19:21;;;;;;;7.20;2.60;;;;;;;8.36;100.00;98317.53;5173053;27;20042;-63
2022/10/04 09:22:18;;;;;;;4.18;2.30;;;;;;;8.54;100.00;98323.28;5172173;27;20046;-68
2022/10/04 09:25:05;;;;;;;1.15;0.90;;;;;;;8.38;100.00;98319.97;5126051;27;20497;-70
2022/10/04 09:27:50;;;;;;;1.10;1.00;;;;;;;8.25;100.00;98317.41;5172634;27;20046;-71
2022/10/04 09:30:19;;;;;;;1.17;1.00;;;;;;;8.29;100.00;98316.69;5172898;27;20053;-70
2022/10/04 09:33:18;;;;;;;2.67;2.22;;;;;;;8.32;100.00;98337.78;5172700;27;20436;-69
2022/10/04 09:36:14;;;;;;;1.33;1.20;;;;;;;8.18;100.00;98341.13;5172599;27;20099;-70
2022/10/04 09:39:17;;;;;;;1.15;0.95;;;;;;;8.31;100.00;98341.69;5172767;27;20057;-73
2022/10/04 09:42:09;;;;;;;3.65;1.10;;;;;;;8.30;100.00;98351.81;5129539;27;20042;-69
2022/10/04 09:44:55;;;;;;;3.20;2.50;;;;;;;8.51;100.00;98351.34;5172415;27;20050;-71
2022/10/04 09:47:36;;;;;;;1.00;1.00;;;;;;;8.66;100.00;98355.03;5172567;27;20046;-70
2022/10/04 09:50:40;;;;;;;0.82;0.82;;;;;;;8.78;100.00;98354.78;5172241;27;20061;-70
2022/10/04 09:53:43;;;;;;;2.10;1.60;;;;;;;8.36;100.00;98350.31;5169987;27;20046;-72
2022/10/04 09:56:32;;;;;;;1.60;0.95;;;;;;;8.70;100.00;98353.94;5172318;27;20054;-73
2022/10/04 09:59:20;;;;;;;0.80;0.80;;;;;;;8.75;100.00;98357.50;5172176;27;20046;-71
2022/10/04 10:02:03;;;;;;;0.82;0.80;;;;;;;8.76;100.00;98354.38;5172460;27;20102;-75
2022/10/04 10:04:43;;;;;;;3.58;2.20;;;;;;;8.65;100.00;98370.63;5172317;27;20050;-75
2022/10/04 10:07:27;;;;;;;1.75;1.65;;;;;;;8.89;100.00;98377.56;5172253;27;20501;-77
2022/10/04 10:16:11;;;;;;;2.47;1.00;;;;;;;8.54;100.00;98399.78;5172182;27;20060;-72
2022/10/04 10:18:50;;;;;;;1.30;1.20;;;;;;;8.59;100.00;98385.00;5172209;27;20145;-71
2022/10/04 10:21:30;;;;;;;1.00;0.90;;;;;;;8.94;100.00;98387.41;5171911;27;20042;-72
2022/10/04 10:24:19;;;;;;;3.15;1.67;;;;;;;9.06;100.00;98383.59;5171766;27;20528;-71
2022/10/04 10:27:09;;;;;;;2.35;1.23;;;;;;;8.84;100.00;98382.59;5171871;27;20440;-71
2022/10/04 10:30:12;;;;;;;1.20;1.10;;;;;;;8.95;100.00;98384.28;5172078;27;20046;-71
2022/10/04 10:33:16;;;;;;;2.17;1.27;;;;;;;8.85;100.00;98343.16;5159605;27;20050;-71
2022/10/04 10:36:07;;;;;;;3.70;2.30;;;;;;;8.88;100.00;98380.69;5175605;27;20046;-71
2022/10/04 10:38:56;;;;;;;2.15;1.30;;;;;;;8.94;100.00;98366.31;5172154;27;20054;-71
2022/10/04 10:41:43;;;;;;;1.38;1.13;;;;;;;8.89;100.00;98344.75;5175599;27;20102;-71
2022/10/04 10:44:28;;;;;;;2.63;1.60;;;;;;;8.69;100.00;98385.13;5175306;27;20157;-71
2022/10/04 10:47:14;;;;;;;3.55;0.88;;;;;;;8.70;100.00;98392.19;5175240;27;20081;-71
2022/10/04 10:49:55;;;;;;;1.33;1.00;;;;;;;8.36;100.00;98404.94;5175367;27;20050;-71
2022/10/04 10:52:58;;;;;;;3.55;1.83;;;;;;;8.51;100.00;98444.22;5175133;27;20489;-71
2022/10/04 10:55:41;;;;;;;4.18;1.73;;;;;;;8.94;100.00;98445.59;5175193;27;20497;-71
2022/10/04 10:58:34;;;;;;;1.60;1.10;;;;;;;8.73;100.00;98415.25;5175457;27;20054;-71
2022/10/04 11:01:20;;;;;;;1.10;1.00;;;;;;;8.65;100.00;98410.84;5171374;27;20049;-71
2022/10/04 11:04:25;;;;;;;1.10;1.00;;;;;;;8.52;100.00;98404.03;5174956;27;20049;-71
2022/10/04 11:07:32;;;;;;;1.17;1.08;;;;;;;8.79;100.00;98421.94;5174936;27;20046;-71
2022/10/04 11:10:40;;;;;;;0.70;0.70;;;;;;;9.00;100.00;98415.16;5174909;27;20501;-69
2022/10/04 11:13:53;;;;;;;3.13;1.38;;;;;;;8.68;100.00;98445.63;5175108;27;20091;-67
2022/10/04 11:16:48;;;;;;;1.95;0.90;;;;;;;8.97;100.00;98437.81;5174939;27;20398;-68
2022/10/04 11:20:05;;;;;;;1.35;0.90;;;;;;;9.41;100.00;98449.66;5135071;27;20054;-71
2022/10/04 11:23:10;;;;;;;1.17;1.08;;;;;;;9.52;100.00;98418.88;5174680;27;20078;-71
2022/10/04 11:25:56;;;;;;;0.73;0.73;;;;;;;9.61;100.00;98386.53;5162754;27;20046;-70
2022/10/04 11:28:30;;;;;;;1.33;0.70;;;;;;;9.94;100.00;98352.78;5173971;27;20058;-71
2022/10/04 11:31:32;;;;;;;1.52;1.00;;;;;;;9.84;100.00;98233.81;5175086;27;20505;-71
2022/10/04 11:34:43;;;;;;;1.10;0.73;;;;;;;10.00;100.00;98126.75;5175104;27;20649;-71
2022/10/04 11:37:18;;;;;;;0.75;0.75;;;;;;;9.86;100.00;98041.81;5174430;27;20471;-71
2022/10/04 11:40:16;;;;;;;1.45;0.90;;;;;;;9.75;100.00;98181.38;5174719;27;20050;-71
2022/10/04 11:43:00;;;;;;;1.85;1.70;;;;;;;9.79;100.00;98238.84;5174408;27;20064;-71
2022/10/04 11:45:37;;;;;;;4.05;1.30;;;;;;;9.59;100.00;98213.72;5174347;27;20139;-71
2022/10/04 11:48:20;;;;;;;0.95;0.95;;;;;;;9.32;100.00;98244.00;5174148;27;20046;-71
2022/10/04 11:51:27;;;;;;;1.38;1.27;;;;;;;9.30;100.00;98294.81;5174374;27;20042;-71
2022/10/04 11:54:28;;;;;;;1.10;0.98;;;;;;;8.97;100.00;98312.06;5174151;27;20069;-71
2022/10/04 11:57:24;;;;;;;2.70;1.30;;;;;;;9.19;100.00;98360.31;5159326;27;20137;-71
2022/10/04 12:00:04;;;;;;;1.60;1.50;;;;;;;9.25;100.00;98416.25;5172726;27;20050;-71
2022/10/04 12:02:55;;;;;;;0.90;0.90;;;;;;;9.31;100.00;98420.22;5174436;27;20212;-71
2022/10/04 12:05:42;;;;;;;1.05;1.00;;;;;;;9.38;100.00;98436.72;5156087;27;20057;-71
2022/10/04 12:08:21;;;;;;;3.25;1.00;;;;;;;9.27;100.00;98430.34;5173787;27;20046;-77
2022/10/04 12:11:14;;;;;;;1.00;0.90;;;;;;;9.21;100.00;98475.59;5173427;27;20050;-69
2022/10/04 12:13:55;;;;;;;4.05;1.50;;;;;;;9.15;100.00;98493.50;5173824;27;20050;-70
2022/10/04 12:16:40;;;;;;;2.65;1.48;;;;;;;9.43;100.00;98480.16;5173769;27;20049;-72
2022/10/04 12:19:38;;;;;;;1.20;1.10;;;;;;;9.53;100.00;98469.69;5173686;27;20054;-68
2022/10/04 12:22:28;;;;;;;1.00;0.90;;;;;;;9.46;100.00;98445.78;5173712;27;20091;-68
2022/10/04 12:25:39;;;;;;;1.15;1.02;;;;;;;9.46;100.00;98436.78;5173926;27;20046;-70
2022/10/04 12:28:21;;;;;;;1.05;1.05;;;;;;;9.51;100.00;98439.97;5134812;27;20050;-72
2022/10/04 12:31:20;;;;;;;2.10;1.05;;;;;;;9.13;100.00;98439.19;5173369;27;20057;-71
2022/10/04 12:33:58;;;;;;;1.10;1.00;;;;;;;9.38;100.00;98449.63;5173853;27;20054;-71
2022/10/04 12:36:33;;;;;;;2.17;1.30;;;;;;;9.31;100.00;98441.34;5173426;27;20549;-71
2022/10/04 12:39:21;;;;;;;1.25;1.08;;;;;;;9.40;100.00;98464.50;5173430;27;20060;-71
2022/10/04 12:41:59;;;;;;;1.90;1.70;;;;;;;9.36;100.00;98463.69;5173480;27;20106;-71